sensor_id;sensor_type;location;lat;lon;timestamp;P1;durP1;ratioP1;P2;durP2;ratioP2
39848;SDS011;25518;47.878;15.914;2022-09-24T00:01:26;2.30;;;1.25;;
39848;SDS011;25518;47.878;15.914;2022-09-24T00:03:54;2.57;;;1.13;;
39848;SDS011;25518;47.878;15.914;2022-09-24T00:06:23;3.65;;;1.48;;
39848;SDS011;25518;47.878;15.914;2022-09-24T00:08:52;3.63;;;1.30;;
39848;SDS011;25518;47.878;15.914;2022-09-24T00:11:20;2.10;;;1.02;;
39848;SDS011;25518;47.878;15.914;2022-09-24T00:13:48;4.38;;;1.42;;
39848;SDS011;25518;47.878;15.914;2022-09-24T00:16:16;2.13;;;1.07;;
39848;SDS011;25518;47.878;15.914;2022-09-24T00:18:44;2.53;;;1.27;;
39848;SDS011;25518;47.878;15.914;2022-09-24T00:21:26;3.40;;;1.20;;
39848;SDS011;25518;47.878;15.914;2022-09-24T00:23:56;2.03;;;1.10;;
39848;SDS011;25518;47.878;15.914;2022-09-24T00:26:24;3.00;;;1.40;;
39848;SDS011;25518;47.878;15.914;2022-09-24T00:29:11;3.08;;;1.20;;
39848;SDS011;25518;47.878;15.914;2022-09-24T00:31:40;2.33;;;1.20;;
39848;SDS011;25518;47.878;15.914;2022-09-24T00:34:06;2.78;;;1.13;;
39848;SDS011;25518;47.878;15.914;2022-09-24T00:36:33;3.15;;;1.70;;
39848;SDS011;25518;47.878;15.914;2022-09-24T00:38:59;2.67;;;1.50;;
39848;SDS011;25518;47.878;15.914;2022-09-24T00:41:27;2.40;;;1.10;;
39848;SDS011;25518;47.878;15.914;2022-09-24T00:43:55;3.08;;;1.45;;
39848;SDS011;25518;47.878;15.914;2022-09-24T00:49:05;4.22;;;1.90;;
39848;SDS011;25518;47.878;15.914;2022-09-24T00:51:44;4.68;;;2.33;;
39848;SDS011;25518;47.878;15.914;2022-09-24T00:54:15;4.60;;;1.70;;
39848;SDS011;25518;47.878;15.914;2022-09-24T00:56:47;4.38;;;1.50;;
39848;SDS011;25518;47.878;15.914;2022-09-24T00:59:16;5.18;;;1.70;;
39848;SDS011;25518;47.878;15.914;2022-09-24T01:01:45;4.97;;;1.98;;
39848;SDS011;25518;47.878;15.914;2022-09-24T01:04:13;4.30;;;1.90;;
39848;SDS011;25518;47.878;15.914;2022-09-24T01:06:42;3.22;;;1.70;;
39848;SDS011;25518;47.878;15.914;2022-09-24T01:09:08;4.55;;;1.88;;
39848;SDS011;25518;47.878;15.914;2022-09-24T01:14:24;3.30;;;1.53;;
39848;SDS011;25518;47.878;15.914;2022-09-24T01:25:04;2.58;;;1.08;;
39848;SDS011;25518;47.878;15.914;2022-09-24T01:28:04;1.65;;;0.90;;
39848;SDS011;25518;47.878;15.914;2022-09-24T01:30:43;2.90;;;1.38;;
39848;SDS011;25518;47.878;15.914;2022-09-24T01:33:16;3.80;;;1.60;;
39848;SDS011;25518;47.878;15.914;2022-09-24T01:35:47;1.73;;;0.93;;
39848;SDS011;25518;47.878;15.914;2022-09-24T01:38:18;1.92;;;1.00;;
39848;SDS011;25518;47.878;15.914;2022-09-24T01:40:49;2.55;;;1.38;;
39848;SDS011;25518;47.878;15.914;2022-09-24T01:43:19;3.00;;;1.50;;
39848;SDS011;25518;47.878;15.914;2022-09-24T01:45:47;5.07;;;1.50;;
39848;SDS011;25518;47.878;15.914;2022-09-24T01:48:13;4.15;;;1.42;;
39848;SDS011;25518;47.878;15.914;2022-09-24T01:50:43;2.38;;;1.35;;
39848;SDS011;25518;47.878;15.914;2022-09-24T01:53:16;2.23;;;1.20;;
39848;SDS011;25518;47.878;15.914;2022-09-24T01:55:49;2.92;;;1.35;;
39848;SDS011;25518;47.878;15.914;2022-09-24T01:58:21;2.83;;;1.30;;
39848;SDS011;25518;47.878;15.914;2022-09-24T02:00:55;3.20;;;1.60;;
39848;SDS011;25518;47.878;15.914;2022-09-24T02:03:29;2.10;;;1.10;;
39848;SDS011;25518;47.878;15.914;2022-09-24T02:06:30;2.28;;;1.15;;
39848;SDS011;25518;47.878;15.914;2022-09-24T02:08:50;3.03;;;1.20;;
39848;SDS011;25518;47.878;15.914;2022-09-24T02:11:16;1.67;;;0.95;;
39848;SDS011;25518;47.878;15.914;2022-09-24T02:13:50;2.25;;;1.15;;
39848;SDS011;25518;47.878;15.914;2022-09-24T02:16:33;4.20;;;1.40;;
39848;SDS011;25518;47.878;15.914;2022-09-24T02:19:04;2.53;;;1.00;;
39848;SDS011;25518;47.878;15.914;2022-09-24T02:21:32;2.80;;;1.15;;
39848;SDS011;25518;47.878;15.914;2022-09-24T02:24:08;2.97;;;1.25;;
39848;SDS011;25518;47.878;15.914;2022-09-24T02:26:38;2.07;;;1.20;;
39848;SDS011;25518;47.878;15.914;2022-09-24T02:29:04;3.63;;;1.10;;
39848;SDS011;25518;47.878;15.914;2022-09-24T02:31:31;2.85;;;1.02;;
39848;SDS011;25518;47.878;15.914;2022-09-24T02:34:03;2.20;;;1.20;;
39848;SDS011;25518;47.878;15.914;2022-09-24T02:39:22;6.43;;;1.60;;
39848;SDS011;25518;47.878;15.914;2022-09-24T02:41:48;4.53;;;1.70;;
39848;SDS011;25518;47.878;15.914;2022-09-24T02:44:16;3.05;;;1.27;;
39848;SDS011;25518;47.878;15.914;2022-09-24T02:46:44;4.85;;;1.95;;
39848;SDS011;25518;47.878;15.914;2022-09-24T02:49:11;4.50;;;1.60;;
39848;SDS011;25518;47.878;15.914;2022-09-24T02:51:38;4.13;;;2.00;;
39848;SDS011;25518;47.878;15.914;2022-09-24T02:54:06;3.08;;;1.40;;
39848;SDS011;25518;47.878;15.914;2022-09-24T02:56:32;2.80;;;1.50;;
39848;SDS011;25518;47.878;15.914;2022-09-24T02:58:59;4.68;;;1.35;;
39848;SDS011;25518;47.878;15.914;2022-09-24T03:01:27;2.60;;;1.48;;
39848;SDS011;25518;47.878;15.914;2022-09-24T03:19:41;4.13;;;1.48;;
39848;SDS011;25518;47.878;15.914;2022-09-24T03:22:07;5.57;;;1.63;;
39848;SDS011;25518;47.878;15.914;2022-09-24T03:24:33;3.70;;;1.40;;
39848;SDS011;25518;47.878;15.914;2022-09-24T03:26:59;4.35;;;1.75;;
39848;SDS011;25518;47.878;15.914;2022-09-24T03:29:25;2.80;;;1.20;;
39848;SDS011;25518;47.878;15.914;2022-09-24T03:32:11;2.70;;;1.30;;
39848;SDS011;25518;47.878;15.914;2022-09-24T03:34:37;2.20;;;1.37;;
39848;SDS011;25518;47.878;15.914;2022-09-24T03:37:03;3.63;;;1.45;;
39848;SDS011;25518;47.878;15.914;2022-09-24T03:39:29;2.33;;;1.45;;
39848;SDS011;25518;47.878;15.914;2022-09-24T03:41:54;3.40;;;1.50;;
39848;SDS011;25518;47.878;15.914;2022-09-24T03:44:20;2.27;;;1.07;;
39848;SDS011;25518;47.878;15.914;2022-09-24T03:46:46;2.88;;;1.40;;
39848;SDS011;25518;47.878;15.914;2022-09-24T03:49:14;3.38;;;1.20;;
39848;SDS011;25518;47.878;15.914;2022-09-24T03:51:40;2.22;;;1.17;;
39848;SDS011;25518;47.878;15.914;2022-09-24T03:54:06;2.90;;;1.23;;
39848;SDS011;25518;47.878;15.914;2022-09-24T03:56:32;4.20;;;2.10;;
39848;SDS011;25518;47.878;15.914;2022-09-24T03:58:58;3.22;;;1.30;;
39848;SDS011;25518;47.878;15.914;2022-09-24T04:01:23;2.08;;;1.13;;
39848;SDS011;25518;47.878;15.914;2022-09-24T04:03:49;3.40;;;1.30;;
39848;SDS011;25518;47.878;15.914;2022-09-24T04:06:15;2.03;;;1.10;;
39848;SDS011;25518;47.878;15.914;2022-09-24T04:08:42;3.35;;;1.27;;
39848;SDS011;25518;47.878;15.914;2022-09-24T04:11:08;2.53;;;1.20;;
39848;SDS011;25518;47.878;15.914;2022-09-24T04:13:34;2.42;;;1.10;;
39848;SDS011;25518;47.878;15.914;2022-09-24T04:16:01;3.35;;;1.30;;
39848;SDS011;25518;47.878;15.914;2022-09-24T04:18:28;2.88;;;1.63;;
39848;SDS011;25518;47.878;15.914;2022-09-24T04:21:01;2.53;;;1.23;;
39848;SDS011;25518;47.878;15.914;2022-09-24T04:23:27;4.28;;;1.40;;
39848;SDS011;25518;47.878;15.914;2022-09-24T04:25:56;10.40;;;1.50;;
39848;SDS011;25518;47.878;15.914;2022-09-24T04:28:25;3.27;;;1.30;;
39848;SDS011;25518;47.878;15.914;2022-09-24T04:30:50;4.10;;;1.40;;
39848;SDS011;25518;47.878;15.914;2022-09-24T04:33:16;2.20;;;1.27;;
39848;SDS011;25518;47.878;15.914;2022-09-24T04:35:44;3.03;;;1.48;;
39848;SDS011;25518;47.878;15.914;2022-09-24T04:38:10;2.25;;;1.30;;
39848;SDS011;25518;47.878;15.914;2022-09-24T04:40:36;2.50;;;1.30;;
39848;SDS011;25518;47.878;15.914;2022-09-24T04:43:04;2.75;;;1.30;;
39848;SDS011;25518;47.878;15.914;2022-09-24T04:45:30;2.67;;;1.13;;
39848;SDS011;25518;47.878;15.914;2022-09-24T04:47:57;2.88;;;1.20;;
39848;SDS011;25518;47.878;15.914;2022-09-24T04:50:24;2.08;;;1.13;;
39848;SDS011;25518;47.878;15.914;2022-09-24T04:52:53;2.10;;;1.20;;
39848;SDS011;25518;47.878;15.914;2022-09-24T04:55:21;2.22;;;1.13;;
39848;SDS011;25518;47.878;15.914;2022-09-24T04:57:49;4.00;;;2.28;;
39848;SDS011;25518;47.878;15.914;2022-09-24T05:00:16;3.10;;;1.20;;
39848;SDS011;25518;47.878;15.914;2022-09-24T05:02:44;2.90;;;1.25;;
39848;SDS011;25518;47.878;15.914;2022-09-24T05:05:11;2.53;;;1.20;;
39848;SDS011;25518;47.878;15.914;2022-09-24T05:07:38;2.80;;;1.30;;
39848;SDS011;25518;47.878;15.914;2022-09-24T05:10:05;2.42;;;1.30;;
39848;SDS011;25518;47.878;15.914;2022-09-24T05:12:31;2.30;;;1.20;;
39848;SDS011;25518;47.878;15.914;2022-09-24T05:15:00;1.90;;;1.20;;
39848;SDS011;25518;47.878;15.914;2022-09-24T05:17:26;2.20;;;1.17;;
39848;SDS011;25518;47.878;15.914;2022-09-24T05:19:52;2.42;;;1.30;;
39848;SDS011;25518;47.878;15.914;2022-09-24T05:22:18;8.07;;;1.48;;
39848;SDS011;25518;47.878;15.914;2022-09-24T05:24:44;1.80;;;1.10;;
39848;SDS011;25518;47.878;15.914;2022-09-24T05:27:10;2.92;;;1.20;;
39848;SDS011;25518;47.878;15.914;2022-09-24T05:29:37;5.97;;;3.70;;
39848;SDS011;25518;47.878;15.914;2022-09-24T05:32:06;3.03;;;1.67;;
39848;SDS011;25518;47.878;15.914;2022-09-24T05:34:33;2.40;;;1.50;;
39848;SDS011;25518;47.878;15.914;2022-09-24T05:37:00;3.95;;;1.80;;
39848;SDS011;25518;47.878;15.914;2022-09-24T05:39:26;3.30;;;1.58;;
39848;SDS011;25518;47.878;15.914;2022-09-24T05:41:54;3.28;;;1.50;;
39848;SDS011;25518;47.878;15.914;2022-09-24T05:44:20;3.05;;;1.58;;
39848;SDS011;25518;47.878;15.914;2022-09-24T05:46:47;4.55;;;1.67;;
39848;SDS011;25518;47.878;15.914;2022-09-24T05:49:15;1.90;;;1.20;;
39848;SDS011;25518;47.878;15.914;2022-09-24T05:51:42;2.42;;;1.17;;
39848;SDS011;25518;47.878;15.914;2022-09-24T05:54:08;2.88;;;1.50;;
39848;SDS011;25518;47.878;15.914;2022-09-24T05:56:36;2.65;;;1.42;;
39848;SDS011;25518;47.878;15.914;2022-09-24T05:59:03;3.40;;;1.63;;
39848;SDS011;25518;47.878;15.914;2022-09-24T06:01:29;2.80;;;1.40;;
39848;SDS011;25518;47.878;15.914;2022-09-24T06:03:55;2.58;;;1.30;;
39848;SDS011;25518;47.878;15.914;2022-09-24T06:06:22;2.20;;;1.30;;
39848;SDS011;25518;47.878;15.914;2022-09-24T06:08:49;3.30;;;1.37;;
39848;SDS011;25518;47.878;15.914;2022-09-24T06:11:16;2.30;;;1.27;;
39848;SDS011;25518;47.878;15.914;2022-09-24T06:13:42;2.70;;;1.40;;
39848;SDS011;25518;47.878;15.914;2022-09-24T06:16:09;2.35;;;1.38;;
39848;SDS011;25518;47.878;15.914;2022-09-24T06:18:38;4.68;;;1.30;;
39848;SDS011;25518;47.878;15.914;2022-09-24T06:21:07;2.17;;;1.20;;
39848;SDS011;25518;47.878;15.914;2022-09-24T06:23:36;2.38;;;1.40;;
39848;SDS011;25518;47.878;15.914;2022-09-24T06:26:04;2.50;;;1.35;;
39848;SDS011;25518;47.878;15.914;2022-09-24T06:28:32;2.88;;;1.40;;
39848;SDS011;25518;47.878;15.914;2022-09-24T06:30:59;2.33;;;1.30;;
39848;SDS011;25518;47.878;15.914;2022-09-24T06:33:25;2.05;;;1.33;;
39848;SDS011;25518;47.878;15.914;2022-09-24T06:35:52;2.20;;;1.20;;
39848;SDS011;25518;47.878;15.914;2022-09-24T06:38:18;2.28;;;1.40;;
39848;SDS011;25518;47.878;15.914;2022-09-24T06:40:45;2.10;;;1.30;;
39848;SDS011;25518;47.878;15.914;2022-09-24T06:43:13;3.38;;;1.40;;
39848;SDS011;25518;47.878;15.914;2022-09-24T06:45:41;2.58;;;1.45;;
39848;SDS011;25518;47.878;15.914;2022-09-24T06:48:09;2.92;;;1.30;;
39848;SDS011;25518;47.878;15.914;2022-09-24T06:50:38;6.00;;;1.10;;
39848;SDS011;25518;47.878;15.914;2022-09-24T06:53:06;2.42;;;1.30;;
39848;SDS011;25518;47.878;15.914;2022-09-24T06:55:34;2.70;;;1.33;;
39848;SDS011;25518;47.878;15.914;2022-09-24T07:00:28;2.30;;;1.30;;
39848;SDS011;25518;47.878;15.914;2022-09-24T07:02:54;2.30;;;1.25;;
39848;SDS011;25518;47.878;15.914;2022-09-24T07:05:20;2.35;;;1.23;;
39848;SDS011;25518;47.878;15.914;2022-09-24T07:07:46;2.83;;;1.40;;
39848;SDS011;25518;47.878;15.914;2022-09-24T07:10:12;4.07;;;1.50;;
39848;SDS011;25518;47.878;15.914;2022-09-24T07:12:40;2.28;;;1.10;;
39848;SDS011;25518;47.878;15.914;2022-09-24T07:15:06;2.85;;;1.50;;
39848;SDS011;25518;47.878;15.914;2022-09-24T07:17:33;2.40;;;1.20;;
39848;SDS011;25518;47.878;15.914;2022-09-24T07:20:00;2.67;;;1.30;;
39848;SDS011;25518;47.878;15.914;2022-09-24T07:22:27;2.38;;;1.30;;
39848;SDS011;25518;47.878;15.914;2022-09-24T07:24:53;2.90;;;1.50;;
39848;SDS011;25518;47.878;15.914;2022-09-24T07:27:19;2.38;;;1.30;;
39848;SDS011;25518;47.878;15.914;2022-09-24T07:29:46;3.20;;;1.60;;
39848;SDS011;25518;47.878;15.914;2022-09-24T07:32:15;2.40;;;1.50;;
39848;SDS011;25518;47.878;15.914;2022-09-24T07:34:41;3.78;;;1.73;;
39848;SDS011;25518;47.878;15.914;2022-09-24T07:37:08;2.92;;;1.42;;
39848;SDS011;25518;47.878;15.914;2022-09-24T07:39:34;3.28;;;1.40;;
39848;SDS011;25518;47.878;15.914;2022-09-24T07:42:00;2.92;;;1.30;;
39848;SDS011;25518;47.878;15.914;2022-09-24T07:44:27;2.53;;;1.30;;
39848;SDS011;25518;47.878;15.914;2022-09-24T07:46:53;2.10;;;1.08;;
39848;SDS011;25518;47.878;15.914;2022-09-24T07:49:20;3.20;;;1.42;;
39848;SDS011;25518;47.878;15.914;2022-09-24T07:51:47;2.60;;;1.20;;
39848;SDS011;25518;47.878;15.914;2022-09-24T07:54:13;2.40;;;1.40;;
39848;SDS011;25518;47.878;15.914;2022-09-24T07:56:41;2.63;;;1.33;;
39848;SDS011;25518;47.878;15.914;2022-09-24T07:59:07;2.10;;;1.08;;
39848;SDS011;25518;47.878;15.914;2022-09-24T08:01:35;2.55;;;1.20;;
39848;SDS011;25518;47.878;15.914;2022-09-24T08:04:02;2.72;;;1.30;;
39848;SDS011;25518;47.878;15.914;2022-09-24T08:06:29;4.70;;;1.17;;
39848;SDS011;25518;47.878;15.914;2022-09-24T08:08:57;2.63;;;1.40;;
39848;SDS011;25518;47.878;15.914;2022-09-24T08:11:24;2.33;;;1.20;;
39848;SDS011;25518;47.878;15.914;2022-09-24T08:13:50;2.78;;;1.77;;
39848;SDS011;25518;47.878;15.914;2022-09-24T08:16:16;2.45;;;1.08;;
39848;SDS011;25518;47.878;15.914;2022-09-24T08:18:45;2.25;;;1.17;;
39848;SDS011;25518;47.878;15.914;2022-09-24T08:21:12;2.33;;;1.30;;
39848;SDS011;25518;47.878;15.914;2022-09-24T08:23:39;2.15;;;1.10;;
39848;SDS011;25518;47.878;15.914;2022-09-24T08:26:06;2.58;;;1.33;;
39848;SDS011;25518;47.878;15.914;2022-09-24T08:28:33;2.33;;;1.30;;
39848;SDS011;25518;47.878;15.914;2022-09-24T08:31:01;3.25;;;1.33;;
39848;SDS011;25518;47.878;15.914;2022-09-24T08:33:29;2.25;;;1.38;;
39848;SDS011;25518;47.878;15.914;2022-09-24T08:35:58;3.13;;;1.60;;
39848;SDS011;25518;47.878;15.914;2022-09-24T08:38:25;3.00;;;1.52;;
39848;SDS011;25518;47.878;15.914;2022-09-24T08:46:22;3.25;;;1.48;;
39848;SDS011;25518;47.878;15.914;2022-09-24T08:49:17;3.53;;;1.27;;
39848;SDS011;25518;47.878;15.914;2022-09-24T08:54:28;2.38;;;1.33;;
39848;SDS011;25518;47.878;15.914;2022-09-24T08:56:55;3.20;;;1.40;;
39848;SDS011;25518;47.878;15.914;2022-09-24T08:59:26;2.72;;;1.52;;
39848;SDS011;25518;47.878;15.914;2022-09-24T09:01:57;4.07;;;1.20;;
39848;SDS011;25518;47.878;15.914;2022-09-24T09:05:04;3.20;;;1.30;;
39848;SDS011;25518;47.878;15.914;2022-09-24T09:07:34;2.88;;;1.40;;
39848;SDS011;25518;47.878;15.914;2022-09-24T09:10:07;4.80;;;1.40;;
39848;SDS011;25518;47.878;15.914;2022-09-24T09:12:39;4.40;;;1.30;;
39848;SDS011;25518;47.878;15.914;2022-09-24T09:15:10;4.10;;;1.38;;
39848;SDS011;25518;47.878;15.914;2022-09-24T09:17:46;2.72;;;1.38;;
39848;SDS011;25518;47.878;15.914;2022-09-24T09:20:18;5.00;;;1.40;;
39848;SDS011;25518;47.878;15.914;2022-09-24T09:22:49;2.15;;;1.23;;
39848;SDS011;25518;47.878;15.914;2022-09-24T09:25:21;7.03;;;1.50;;
39848;SDS011;25518;47.878;15.914;2022-09-24T09:27:57;2.35;;;1.20;;
39848;SDS011;25518;47.878;15.914;2022-09-24T09:30:25;4.10;;;1.10;;
39848;SDS011;25518;47.878;15.914;2022-09-24T09:33:13;3.22;;;1.40;;
39848;SDS011;25518;47.878;15.914;2022-09-24T09:35:54;4.20;;;1.40;;
39848;SDS011;25518;47.878;15.914;2022-09-24T09:38:31;4.25;;;1.38;;
39848;SDS011;25518;47.878;15.914;2022-09-24T09:41:32;2.70;;;1.52;;
39848;SDS011;25518;47.878;15.914;2022-09-24T09:44:14;2.55;;;1.30;;
39848;SDS011;25518;47.878;15.914;2022-09-24T09:47:03;3.60;;;1.35;;
39848;SDS011;25518;47.878;15.914;2022-09-24T09:49:53;2.67;;;1.30;;
39848;SDS011;25518;47.878;15.914;2022-09-24T09:52:23;3.22;;;1.60;;
39848;SDS011;25518;47.878;15.914;2022-09-24T09:54:52;4.70;;;1.95;;
39848;SDS011;25518;47.878;15.914;2022-09-24T09:57:19;6.18;;;2.70;;
39848;SDS011;25518;47.878;15.914;2022-09-24T09:59:48;4.23;;;1.80;;
39848;SDS011;25518;47.878;15.914;2022-09-24T10:02:21;16.83;;;4.57;;
39848;SDS011;25518;47.878;15.914;2022-09-24T10:04:58;4.68;;;2.00;;
39848;SDS011;25518;47.878;15.914;2022-09-24T10:07:26;4.20;;;1.42;;
39848;SDS011;25518;47.878;15.914;2022-09-24T10:09:57;19.67;;;7.60;;
39848;SDS011;25518;47.878;15.914;2022-09-24T10:12:27;16.48;;;6.03;;
39848;SDS011;25518;47.878;15.914;2022-09-24T10:14:58;11.40;;;4.30;;
39848;SDS011;25518;47.878;15.914;2022-09-24T10:17:27;13.27;;;4.18;;
39848;SDS011;25518;47.878;15.914;2022-09-24T10:19:58;6.65;;;3.47;;
39848;SDS011;25518;47.878;15.914;2022-09-24T10:22:27;7.85;;;2.42;;
39848;SDS011;25518;47.878;15.914;2022-09-24T10:24:54;3.33;;;1.30;;
39848;SDS011;25518;47.878;15.914;2022-09-24T10:27:28;3.08;;;1.55;;
39848;SDS011;25518;47.878;15.914;2022-09-24T10:29:55;3.27;;;1.50;;
39848;SDS011;25518;47.878;15.914;2022-09-24T10:32:42;3.40;;;1.48;;
39848;SDS011;25518;47.878;15.914;2022-09-24T10:35:38;3.90;;;1.70;;
39848;SDS011;25518;47.878;15.914;2022-09-24T10:38:14;3.80;;;1.83;;
39848;SDS011;25518;47.878;15.914;2022-09-24T10:40:44;4.43;;;1.90;;
39848;SDS011;25518;47.878;15.914;2022-09-24T10:43:26;4.65;;;1.83;;
39848;SDS011;25518;47.878;15.914;2022-09-24T10:49:30;3.97;;;1.60;;
39848;SDS011;25518;47.878;15.914;2022-09-24T10:54:54;4.82;;;1.67;;
39848;SDS011;25518;47.878;15.914;2022-09-24T11:03:04;3.35;;;1.65;;
39848;SDS011;25518;47.878;15.914;2022-09-24T11:08:19;3.00;;;1.50;;
39848;SDS011;25518;47.878;15.914;2022-09-24T11:11:05;3.33;;;1.57;;
39848;SDS011;25518;47.878;15.914;2022-09-24T11:17:29;5.15;;;1.65;;
39848;SDS011;25518;47.878;15.914;2022-09-24T11:41:42;3.15;;;1.50;;
39848;SDS011;25518;47.878;15.914;2022-09-24T11:46:49;3.75;;;1.27;;
39848;SDS011;25518;47.878;15.914;2022-09-24T11:52:39;2.95;;;1.40;;
39848;SDS011;25518;47.878;15.914;2022-09-24T11:55:18;3.40;;;1.40;;
39848;SDS011;25518;47.878;15.914;2022-09-24T11:58:03;4.37;;;2.00;;
39848;SDS011;25518;47.878;15.914;2022-09-24T12:03:22;4.57;;;1.70;;
39848;SDS011;25518;47.878;15.914;2022-09-24T12:05:55;3.47;;;1.58;;
39848;SDS011;25518;47.878;15.914;2022-09-24T12:08:28;3.45;;;1.50;;
39848;SDS011;25518;47.878;15.914;2022-09-24T12:11:07;3.20;;;1.80;;
39848;SDS011;25518;47.878;15.914;2022-09-24T12:13:40;4.88;;;1.90;;
39848;SDS011;25518;47.878;15.914;2022-09-24T12:16:16;3.30;;;1.85;;
39848;SDS011;25518;47.878;15.914;2022-09-24T12:18:51;3.35;;;1.60;;
39848;SDS011;25518;47.878;15.914;2022-09-24T12:21:24;3.03;;;1.75;;
39848;SDS011;25518;47.878;15.914;2022-09-24T12:23:58;2.80;;;1.67;;
39848;SDS011;25518;47.878;15.914;2022-09-24T12:26:29;3.67;;;1.60;;
39848;SDS011;25518;47.878;15.914;2022-09-24T12:29:01;3.55;;;1.60;;
39848;SDS011;25518;47.878;15.914;2022-09-24T12:31:59;4.07;;;1.70;;
39848;SDS011;25518;47.878;15.914;2022-09-24T12:37:24;3.53;;;1.80;;
39848;SDS011;25518;47.878;15.914;2022-09-24T12:39:59;4.70;;;1.80;;
39848;SDS011;25518;47.878;15.914;2022-09-24T12:42:40;3.87;;;2.13;;
39848;SDS011;25518;47.878;15.914;2022-09-24T12:45:12;3.67;;;1.90;;
39848;SDS011;25518;47.878;15.914;2022-09-24T12:47:45;3.47;;;1.77;;
39848;SDS011;25518;47.878;15.914;2022-09-24T12:50:20;12.23;;;5.63;;
39848;SDS011;25518;47.878;15.914;2022-09-24T12:52:49;22.75;;;9.90;;
39848;SDS011;25518;47.878;15.914;2022-09-24T12:55:32;34.20;;;13.07;;
39848;SDS011;25518;47.878;15.914;2022-09-24T12:58:00;15.13;;;6.10;;
39848;SDS011;25518;47.878;15.914;2022-09-24T13:00:37;6.03;;;2.35;;
39848;SDS011;25518;47.878;15.914;2022-09-24T13:03:23;11.13;;;4.45;;
39848;SDS011;25518;47.878;15.914;2022-09-24T13:06:02;22.75;;;11.23;;
39848;SDS011;25518;47.878;15.914;2022-09-24T13:08:42;22.88;;;10.15;;
39848;SDS011;25518;47.878;15.914;2022-09-24T13:11:26;16.48;;;7.75;;
39848;SDS011;25518;47.878;15.914;2022-09-24T13:14:06;17.35;;;8.35;;
39848;SDS011;25518;47.878;15.914;2022-09-24T13:16:37;19.02;;;9.52;;
39848;SDS011;25518;47.878;15.914;2022-09-24T13:19:08;16.40;;;7.47;;
39848;SDS011;25518;47.878;15.914;2022-09-24T13:21:54;4.93;;;2.42;;
39848;SDS011;25518;47.878;15.914;2022-09-24T13:24:31;8.48;;;3.67;;
39848;SDS011;25518;47.878;15.914;2022-09-24T13:27:41;11.65;;;4.40;;
39848;SDS011;25518;47.878;15.914;2022-09-24T13:30:00;5.03;;;2.60;;
39848;SDS011;25518;47.878;15.914;2022-09-24T13:32:45;4.03;;;2.15;;
39848;SDS011;25518;47.878;15.914;2022-09-24T13:35:43;5.20;;;2.50;;
39848;SDS011;25518;47.878;15.914;2022-09-24T13:38:20;9.43;;;3.88;;
39848;SDS011;25518;47.878;15.914;2022-09-24T13:40:52;7.47;;;4.07;;
39848;SDS011;25518;47.878;15.914;2022-09-24T13:43:47;5.53;;;2.53;;
39848;SDS011;25518;47.878;15.914;2022-09-24T13:46:16;6.20;;;2.72;;
39848;SDS011;25518;47.878;15.914;2022-09-24T13:48:48;4.17;;;2.30;;
39848;SDS011;25518;47.878;15.914;2022-09-24T13:51:17;6.47;;;3.20;;
39848;SDS011;25518;47.878;15.914;2022-09-24T13:53:54;5.18;;;2.65;;
39848;SDS011;25518;47.878;15.914;2022-09-24T13:56:37;4.82;;;2.65;;
39848;SDS011;25518;47.878;15.914;2022-09-24T13:59:05;7.45;;;3.28;;
39848;SDS011;25518;47.878;15.914;2022-09-24T14:01:38;7.03;;;2.95;;
39848;SDS011;25518;47.878;15.914;2022-09-24T14:04:22;8.15;;;4.03;;
39848;SDS011;25518;47.878;15.914;2022-09-24T14:06:50;6.80;;;3.13;;
39848;SDS011;25518;47.878;15.914;2022-09-24T14:09:34;4.37;;;2.70;;
39848;SDS011;25518;47.878;15.914;2022-09-24T14:12:02;4.50;;;2.67;;
39848;SDS011;25518;47.878;15.914;2022-09-24T14:14:42;5.35;;;2.90;;
39848;SDS011;25518;47.878;15.914;2022-09-24T14:17:12;6.07;;;2.50;;
39848;SDS011;25518;47.878;15.914;2022-09-24T14:19:40;4.10;;;2.25;;
39848;SDS011;25518;47.878;15.914;2022-09-24T14:22:12;5.47;;;2.50;;
39848;SDS011;25518;47.878;15.914;2022-09-24T14:25:02;8.60;;;2.83;;
39848;SDS011;25518;47.878;15.914;2022-09-24T14:27:32;5.63;;;2.53;;
39848;SDS011;25518;47.878;15.914;2022-09-24T14:30:06;6.43;;;2.65;;
39848;SDS011;25518;47.878;15.914;2022-09-24T14:32:42;4.88;;;2.60;;
39848;SDS011;25518;47.878;15.914;2022-09-24T14:37:50;8.20;;;3.28;;
39848;SDS011;25518;47.878;15.914;2022-09-24T14:40:20;6.45;;;3.20;;
39848;SDS011;25518;47.878;15.914;2022-09-24T14:42:52;5.72;;;2.90;;
39848;SDS011;25518;47.878;15.914;2022-09-24T14:48:03;6.43;;;3.28;;
39848;SDS011;25518;47.878;15.914;2022-09-24T14:53:01;17.02;;;7.40;;
39848;SDS011;25518;47.878;15.914;2022-09-24T14:55:43;25.80;;;10.80;;
39848;SDS011;25518;47.878;15.914;2022-09-24T14:58:40;15.43;;;5.55;;
39848;SDS011;25518;47.878;15.914;2022-09-24T15:01:01;11.00;;;4.88;;
39848;SDS011;25518;47.878;15.914;2022-09-24T15:04:01;18.10;;;6.32;;
39848;SDS011;25518;47.878;15.914;2022-09-24T15:11:52;27.27;;;9.55;;
39848;SDS011;25518;47.878;15.914;2022-09-24T15:14:21;18.17;;;7.70;;
39848;SDS011;25518;47.878;15.914;2022-09-24T15:16:52;10.82;;;4.43;;
39848;SDS011;25518;47.878;15.914;2022-09-24T15:19:20;7.25;;;3.15;;
39848;SDS011;25518;47.878;15.914;2022-09-24T15:21:48;7.07;;;3.10;;
39848;SDS011;25518;47.878;15.914;2022-09-24T15:24:16;4.93;;;2.40;;
39848;SDS011;25518;47.878;15.914;2022-09-24T15:26:46;5.55;;;2.75;;
39848;SDS011;25518;47.878;15.914;2022-09-24T15:29:23;4.03;;;2.17;;
39848;SDS011;25518;47.878;15.914;2022-09-24T15:31:49;6.33;;;3.10;;
39848;SDS011;25518;47.878;15.914;2022-09-24T15:34:16;5.47;;;2.28;;
39848;SDS011;25518;47.878;15.914;2022-09-24T15:36:45;4.55;;;2.38;;
39848;SDS011;25518;47.878;15.914;2022-09-24T15:39:13;5.70;;;2.28;;
39848;SDS011;25518;47.878;15.914;2022-09-24T15:41:42;4.53;;;2.28;;
39848;SDS011;25518;47.878;15.914;2022-09-24T15:44:10;6.05;;;2.28;;
39848;SDS011;25518;47.878;15.914;2022-09-24T15:46:44;4.22;;;2.30;;
39848;SDS011;25518;47.878;15.914;2022-09-24T15:49:12;6.55;;;2.20;;
39848;SDS011;25518;47.878;15.914;2022-09-24T15:51:38;4.63;;;2.20;;
39848;SDS011;25518;47.878;15.914;2022-09-24T15:54:04;4.22;;;2.13;;
39848;SDS011;25518;47.878;15.914;2022-09-24T15:56:33;4.32;;;2.28;;
39848;SDS011;25518;47.878;15.914;2022-09-24T15:59:00;4.30;;;1.92;;
39848;SDS011;25518;47.878;15.914;2022-09-24T16:01:26;3.72;;;1.85;;
39848;SDS011;25518;47.878;15.914;2022-09-24T16:03:52;4.75;;;1.98;;
39848;SDS011;25518;47.878;15.914;2022-09-24T16:06:18;4.25;;;2.35;;
39848;SDS011;25518;47.878;15.914;2022-09-24T16:08:45;5.78;;;2.40;;
39848;SDS011;25518;47.878;15.914;2022-09-24T16:11:11;4.67;;;2.20;;
39848;SDS011;25518;47.878;15.914;2022-09-24T16:13:37;4.50;;;2.45;;
39848;SDS011;25518;47.878;15.914;2022-09-24T16:16:05;3.95;;;2.35;;
39848;SDS011;25518;47.878;15.914;2022-09-24T16:18:32;4.10;;;2.00;;
39848;SDS011;25518;47.878;15.914;2022-09-24T16:21:03;4.43;;;2.03;;
39848;SDS011;25518;47.878;15.914;2022-09-24T16:23:30;4.57;;;2.25;;
39848;SDS011;25518;47.878;15.914;2022-09-24T16:25:56;4.97;;;2.00;;
39848;SDS011;25518;47.878;15.914;2022-09-24T16:28:24;3.80;;;2.10;;
39848;SDS011;25518;47.878;15.914;2022-09-24T16:30:52;5.45;;;2.60;;
39848;SDS011;25518;47.878;15.914;2022-09-24T16:33:18;5.07;;;2.50;;
39848;SDS011;25518;47.878;15.914;2022-09-24T16:35:45;6.65;;;2.42;;
39848;SDS011;25518;47.878;15.914;2022-09-24T16:38:11;4.10;;;2.13;;
39848;SDS011;25518;47.878;15.914;2022-09-24T16:40:37;4.70;;;2.55;;
39848;SDS011;25518;47.878;15.914;2022-09-24T16:43:04;3.28;;;1.85;;